Flight Track Log - Related Links

Times and Time Zones

All times are in EDT time to prevent confusion due to time zone crossing. See the N100DB flight status page for this flight to view local times or setup timezone preferences in your user account.

Time Position Orientation Groundspeed Altitude Reporting Facility
EDT Latitude Longitude Course Direction KTS MPH feet Rate Location/Type
Mon 10:13:17 AM 44.1861 -88.9086 10° North 139 160 5,500  Level Minneapolis Center
Mon 10:14:19 AM 44.2278 -88.8869 20° North 138 159 5,500  Level Minneapolis Center
Mon 10:15:21 AM 44.2636 -88.8675 21° North 137 158 5,500  Level Minneapolis Center
Mon 10:16:00 AM 44.1911 -88.5085 10° North  Level Estimated
Mon 10:16:22 AM 44.2997 -88.8475 22° Northeast 138 159 5,500  Level Minneapolis Center
Mon 10:17:00 AM 44.2255 -88.5004 10° North  Level Estimated
Mon 10:17:24 AM 44.3361 -88.8297 19° North 139 160 5,500  Level Minneapolis Center
Mon 10:18:00 AM 44.2599 -88.4923 10° North  Level Estimated
Mon 10:18:38 AM 44.3711 -88.8111 21° North 136 157 5,500  Level Minneapolis Center
Mon 10:19:40 AM 44.4197 -88.7872 19° North 137 158 5,500  Level Minneapolis Center
Mon 10:20:42 AM 44.4564 -88.7717 17° North 138 159 5,500  Level Minneapolis Center
Mon 10:21:56 AM 44.4992 -88.7519 18° North 138 159 5,500  Level Minneapolis Center
Mon 10:22:58 AM 44.5356 -88.7428 10° North 136 157 5,500  Level Minneapolis Center
Mon 10:23:59 AM 44.5722 -88.7289 15° North 136 157 5,500  Level Minneapolis Center
Mon 10:25:01 AM 44.6142 -88.7094 18° North 135 155 5,500  Level Minneapolis Center
Mon 10:26:03 AM 44.6508 -88.6950 16° North 136 157 5,500  Level Minneapolis Center
Mon 10:27:05 AM 44.6878 -88.6803 16° North 136 157 5,500  Level Minneapolis Center
Mon 10:28:07 AM 44.7244 -88.6650 16° North 137 158 5,500  Level Minneapolis Center
Mon 10:29:09 AM 44.7622 -88.6508 15° North 139 160 5,500  Level Minneapolis Center
Mon 10:30:10 AM 44.8000 -88.6403 11° North 140 161 5,500  Level Minneapolis Center
Mon 10:31:12 AM 44.8439 -88.6231 16° North 140 161 5,500  Level Minneapolis Center
Mon 10:32:14 AM 44.8819 -88.6106 13° North 140 161 5,500  Level Minneapolis Center
Mon 10:33:16 AM 44.9197 -88.5994 12° North 140 161 5,500  Level Minneapolis Center
Mon 10:34:18 AM 44.9600 -88.5892 10° North 147 169 5,500 48 Level Minneapolis Center
Mon 10:35:20 AM 44.9992 -88.5747 15° North 146 168 5,600  Climbing Minneapolis Center
Mon 10:36:22 AM 45.0428 -88.5628 11° North 145 167 5,500 -49 Descending Minneapolis Center
Mon 10:37:23 AM 45.0683 -88.5522 16° North 140 161 5,500  Level Minneapolis Center
Mon 10:38:25 AM 45.1225 -88.5281 17° North 145 167 5,500  Level Minneapolis Center
Mon 10:39:27 AM 45.1611 -88.5097 19° North 145 167 5,500 48 Level Minneapolis Center
Mon 10:40:29 AM 45.1986 -88.4950 15° North 143 165 5,600  Climbing Minneapolis Center
Mon 10:41:31 AM 45.2392 -88.4797 15° North 147 169 5,500 -48 Descending Minneapolis Center
Mon 10:42:33 AM 45.2778 -88.4603 20° North 147 169 5,500 -145 Level Minneapolis Center
Mon 10:43:35 AM 45.3175 -88.4369 22° Northeast 142 163 5,200 -484 Descending Minneapolis Center
Mon 10:44:37 AM 45.3536 -88.4097 28° Northeast 145 167 4,500 -581 Descending Minneapolis Center
Mon 10:45:39 AM 45.3972 -88.4053 North 156 180 4,000 -484 Descending Minneapolis Center
Mon 10:46:41 AM 45.4378 -88.4033 North 154 177 3,500 -387 Descending Minneapolis Center
Mon 10:47:43 AM 45.4761 -88.4053 358° North 148 170 3,200 -145 Descending Minneapolis Center
Mon 10:48:45 AM 45.5206 -88.4108 355° North 140 161 3,200  Level Minneapolis Center
Mon 10:49:46 AM 45.5592 -88.4178 353° North 139 160 3,200  Level Minneapolis Center
Mon 10:50:48 AM 45.5981 -88.4236 354° North 139 160 3,200  Level Minneapolis Center
Mon 10:51:50 AM 45.6286 -88.4258 357° North 139 160 3,200 -48 Level Minneapolis Center
Mon 10:52:52 AM 45.6767 -88.4278 358° North 141 162 3,100  Descending Minneapolis Center
Mon 10:53:54 AM 45.7158 -88.4294 358° North 141 162 3,200 97 Climbing Minneapolis Center
Mon 10:54:56 AM 45.7422 -88.4600 321° Northwest 140 161 3,300  Climbing Minneapolis Center
Mon 10:55:58 AM 45.7108 -88.4944 217° Southwest 141 162 3,200  Descending Minneapolis Center
Mon 10:57:00 AM 45.6772 -88.5189 207° Southwest 157 181 3,300  Climbing Minneapolis Center
Mon 10:58:02 AM 45.6808 -88.4686 84° East 156 180 3,200 -49 Descending Minneapolis Center
Mon 10:59:03 AM 45.7156 -88.4364 33° Northeast 152 175 3,200 49 Level Minneapolis Center
Mon 11:00:05 AM 45.7475 -88.4033 36° Northeast 148 170 3,300  Climbing Minneapolis Center
Mon 11:01:07 AM 45.7206 -88.3753 144° Southeast 153 176 3,200 -48 Descending Minneapolis Center
Mon 11:02:09 AM 45.6736 -88.3711 176° South 146 168 3,200  Level Minneapolis Center
Mon 11:03:11 AM 45.6747 -88.4011 273° West 150 173 3,200  Level Minneapolis Center
Mon 11:04:13 AM 45.7106 -88.4178 342° North 142 163 3,200  Level Minneapolis Center
Mon 11:05:14 AM 45.7492 -88.4161 North 137 158 3,200 49 Level Minneapolis Center
Mon 11:06:16 AM 45.7867 -88.4172 359° North 136 157 3,300 48 Climbing Minneapolis Center
Mon 11:07:18 AM 45.7764 -88.4656 253° West 137 158 3,300 -48 Level Minneapolis Center
Mon 11:08:20 AM 45.7522 -88.5042 228° Southwest 132 152 3,200 -97 Descending Minneapolis Center
Mon 11:09:22 AM 45.7083 -88.5111 186° South 145 167 3,100  Descending Minneapolis Center
Mon 11:10:24 AM 45.7178 -88.4689 72° East 151 174 3,200 49 Climbing Minneapolis Center
Mon 11:11:25 AM 45.7386 -88.4356 48° Northeast 148 170 3,200  Level Minneapolis Center
Mon 11:12:27 AM 45.7764 -88.4233 13° North 143 165 3,200  Level Minneapolis Center
Mon 11:13:29 AM 45.7572 -88.4656 237° Southwest 139 160 3,200  Level Minneapolis Center
Mon 11:14:30 AM 45.7272 -88.5000 219° Southwest 137 158 3,200  Level Minneapolis Center
Mon 11:15:32 AM 45.6953 -88.5344 217° Southwest 140 161 3,200  Level Minneapolis Center
Mon 11:16:34 AM 45.6914 -88.4842 96° East 151 174 3,200  Level Minneapolis Center
Mon 11:17:36 AM 45.7253 -88.4494 36° Northeast 149 171 3,200  Level Minneapolis Center
Mon 11:18:37 AM 45.7583 -88.4164 35° Northeast 147 169 3,200 -49 Level Minneapolis Center
Mon 11:19:39 AM 45.7789 -88.3725 56° Northeast 155 178 3,100 -48 Descending Minneapolis Center
Mon 11:20:41 AM 45.7411 -88.3644 172° South 145 167 3,100  Level Minneapolis Center
Mon 11:21:42 AM 45.7011 -88.3628 178° South 142 163 3,100  Level Minneapolis Center
Mon 11:22:44 AM 45.6939 -88.3958 253° West 145 167 3,100  Level Minneapolis Center
Mon 11:23:46 AM 45.7297 -88.4097 345° North 136 157 3,100  Level Minneapolis Center
Mon 11:24:48 AM 45.7767 -88.4061 North 137 158 3,100  Level Minneapolis Center
Mon 11:25:49 AM 45.8172 -88.4033 North 141 162 3,100 -49 Level Minneapolis Center
Mon 11:26:51 AM 45.7964 -88.4461 235° Southwest 147 169 3,000  Descending Minneapolis Center
Mon 11:27:53 AM 45.7692 -88.4875 227° Southwest 145 167 3,100  Climbing Minneapolis Center
Mon 11:28:55 AM 45.7467 -88.4697 151° Southeast 146 168 3,000 -48 Descending Minneapolis Center
Mon 11:29:57 AM 45.7747 -88.4272 47° Northeast 145 167 3,000  Level Minneapolis Center
Mon 11:30:58 AM 45.8061 -88.3892 40° Northeast 147 169 3,000 49 Level Minneapolis Center
Mon 11:32:00 AM 45.8356 -88.3833 North 164 189 3,100  Climbing Minneapolis Center
Mon 11:33:02 AM 45.8061 -88.4336 230° Southwest 147 169 3,000 -48 Descending Minneapolis Center
Mon 11:34:04 AM 45.7794 -88.4717 225° Southwest 141 162 3,000 48 Level Minneapolis Center
Mon 11:35:06 AM 45.7503 -88.4706 178° South 146 168 3,100  Climbing Minneapolis Center
Mon 11:36:19 AM 45.7767 -88.4258 50° Northeast 150 173 3,000 -44 Descending Minneapolis Center
Mon 11:37:22 AM 45.8139 -88.3794 41° Northeast 149 171 3,000 48 Level Minneapolis Center
Mon 11:38:23 AM 45.8044 -88.3392 109° East 142 163 3,100  Climbing Minneapolis Center
Mon 11:39:25 AM 45.7672 -88.3389 180° South 136 157 3,000  Descending Minneapolis Center
Mon 11:40:27 AM 45.7319 -88.3472 189° South 145 167 3,100 48 Climbing Minneapolis Center
Mon 11:41:29 AM 45.7581 -88.3792 320° Northwest 140 161 3,100 -48 Level Minneapolis Center
Mon 11:42:31 AM 45.7983 -88.3883 351° North 142 163 3,000  Descending Minneapolis Center
Mon 11:43:32 AM 45.8331 -88.4036 343° North 156 180 3,100  Climbing Minneapolis Center
Mon 11:44:34 AM 45.7961 -88.4200 197° South 150 173 3,000 -48 Descending Minneapolis Center
Mon 11:45:36 AM 45.7556 -88.4236 184° South 147 169 3,000  Level Minneapolis Center
Mon 11:46:38 AM 45.7461 -88.3942 115° Southeast 172 198 3,000 48 Level Minneapolis Center
Mon 11:47:40 AM 45.7828 -88.3861 North 153 176 3,100 49 Climbing Minneapolis Center
Mon 11:48:41 AM 45.8208 -88.3856 North 143 165 3,100 -49 Level Minneapolis Center
Mon 11:49:43 AM 45.8594 -88.3867 359° North 140 161 3,000 -48 Descending Minneapolis Center
Mon 11:50:45 AM 45.8931 -88.4122 332° Northwest 138 159 3,000 48 Level Minneapolis Center
Mon 11:51:47 AM 45.9156 -88.3731 50° Northeast 153 176 3,100  Climbing Minneapolis Center
Mon 11:52:49 AM 45.8694 -88.3869 192° South 159 183 3,000 -49 Descending Minneapolis Center
Mon 11:53:50 AM 45.8206 -88.3853 179° South 150 173 3,000  Level Minneapolis Center
Mon 11:54:52 AM 45.7819 -88.3878 183° South 145 167 3,000  Level Minneapolis Center
Mon 11:55:54 AM 45.7467 -88.4075 201° Southwest 139 160 3,000  Level Minneapolis Center
Mon 11:56:56 AM 45.7372 -88.3833 119° Southeast 158 182 3,000 48 Level Minneapolis Center
Mon 11:57:58 AM 45.7750 -88.3858 357° North 141 162 3,100  Climbing Minneapolis Center
Mon 11:58:59 AM 45.8156 -88.3864 359° North 143 165 3,000  Descending Minneapolis Center
Mon 12:00:01 PM 45.8564 -88.3853 North 145 167 3,100 48 Climbing Minneapolis Center
Mon 12:01:03 PM 45.8336 -88.3719 158° South 147 169 3,100  Level Minneapolis Center
Mon 12:02:05 PM 45.7967 -88.3950 204° Southwest 144 166 3,100 195 Level Minneapolis Center
Mon 12:03:06 PM 45.7561 -88.4039 189° South 147 169 3,500 585 Climbing Minneapolis Center
Mon 12:04:08 PM 45.7219 -88.4050 181° South 136 157 4,300 485 Climbing Minneapolis Center
Mon 12:05:22 PM 45.6875 -88.4092 185° South 126 145 4,600 132 Climbing Minneapolis Center
Mon 12:06:24 PM 45.6381 -88.4172 186° South 141 162 4,600  Level Minneapolis Center
Mon 12:07:26 PM 45.5964 -88.4267 189° South 147 169 4,600  Level Minneapolis Center
Mon 12:08:27 PM 45.5458 -88.4342 186° South 152 175 4,600  Level Minneapolis Center
Mon 12:09:29 PM 45.5044 -88.4436 189° South 151 174 4,600  Level Minneapolis Center
Mon 12:10:31 PM 45.4639 -88.4489 185° South 149 171 4,600  Level Minneapolis Center
Mon 12:11:32 PM 45.4219 -88.4553 186° South 149 171 4,600  Level Minneapolis Center
Mon 12:12:34 PM 45.3808 -88.4586 183° South 150 173 4,600  Level Minneapolis Center
Mon 12:13:36 PM 45.3389 -88.4689 190° South 151 174 4,600  Level Minneapolis Center
Mon 12:14:38 PM 45.2917 -88.4781 188° South 150 173 4,600  Level Minneapolis Center
Mon 12:15:39 PM 45.2494 -88.4847 186° South 151 174 4,600  Level Minneapolis Center
Mon 12:16:41 PM 45.2086 -88.4928 188° South 151 174 4,600  Level Minneapolis Center
Mon 12:17:43 PM 45.1636 -88.4981 185° South 151 174 4,600  Level Minneapolis Center
Mon 12:18:45 PM 45.1214 -88.5036 185° South 151 174 4,600  Level Minneapolis Center
Mon 12:19:47 PM 45.0792 -88.5117 188° South 151 174 4,600  Level Minneapolis Center
Mon 12:20:48 PM 45.0314 -88.5200 187° South 152 175 4,600  Level Minneapolis Center
Mon 12:21:50 PM 44.9922 -88.5269 187° South 152 175 4,600  Level Minneapolis Center
Mon 12:23:00 PM 44.9506 -88.5232 188° South  Level FlightAware Approximate

Login

Don't have an account? Register now (free) for customized features, flight alerts, and more!